Time,TemperatureF,DewpointF,PressureIn,WindDirection,WindDirectionDegrees,WindSpeedMPH,WindSpeedGustMPH,Humidity,HourlyPrecipIn,Conditions,Clouds,dailyrainin,SoftwareType,DateUTC
2013-02-22 00:01:00,45.4,15.8,30.19,North,0,2.0,2.0,30,0.00,,FEW100,0.00,VWS V14.00,2013-02-22 05:01:00,
2013-02-22 00:16:00,45.4,15.8,30.20,North,0,2.0,2.0,30,0.00,,BKN110,0.00,VWS V14.00,2013-02-22 05:16:00,
2013-02-22 00:31:00,41.6,25.3,30.23,North,0,0.0,2.0,52,0.00,,BKN110,0.00,VWS V14.00,2013-02-22 05:31:00,
2013-02-22 00:46:00,41.5,27.4,30.25,North,0,0.0,0.0,57,0.00,,BKN110,0.00,VWS V14.00,2013-02-22 05:46:00,
2013-02-22 01:01:00,41.3,29.3,30.26,North,0,0.0,0.0,62,0.00,,-RA,0.00,VWS V14.00,2013-02-22 06:01:00,
2013-02-22 01:16:00,40.9,28.5,30.24,North,0,0.0,1.0,61,0.00,,-RA,0.00,VWS V14.00,2013-02-22 06:16:00,
2013-02-22 01:31:00,39.8,30.1,30.24,North,0,0.0,0.0,68,0.00,,-RA,0.00,VWS V14.00,2013-02-22 06:31:00,
2013-02-22 01:46:00,38.2,31.0,30.24,North,0,0.0,0.0,75,0.01,,-RA,0.01,VWS V14.00,2013-02-22 06:46:00,
2013-02-22 02:01:00,37.2,31.3,30.24,North,0,0.0,0.0,79,0.02,,-RA,0.02,VWS V14.00,2013-02-22 07:01:00,
2013-02-22 02:16:00,36.3,31.3,30.25,North,0,0.0,0.0,82,0.02,,-RA,0.02,VWS V14.00,2013-02-22 07:16:00,
2013-02-22 02:31:00,35.6,31.0,30.25,North,0,0.0,0.0,83,0.03,,-RA,0.03,VWS V14.00,2013-02-22 07:31:00,
2013-02-22 02:46:00,35.2,31.1,30.26,North,0,0.0,0.0,85,0.03,,-RA,0.03,VWS V14.00,2013-02-22 07:46:00,
2013-02-22 03:01:00,34.6,30.9,30.25,North,0,0.0,2.0,86,0.02,,-RA,0.03,VWS V14.00,2013-02-22 08:01:00,
2013-02-22 03:16:00,34.0,30.5,30.23,North,0,1.0,4.0,87,0.03,,-RA,0.05,VWS V14.00,2013-02-22 08:16:00,
2013-02-22 03:31:00,33.8,30.6,30.22,SSW,212,0.0,2.0,88,0.04,,-RA,0.06,VWS V14.00,2013-02-22 08:31:00,
2013-02-22 03:46:00,33.5,30.3,30.21,SSW,213,0.0,6.0,88,0.05,,-RA,0.08,VWS V14.00,2013-02-22 08:46:00,
2013-02-22 04:01:00,33.4,30.2,30.20,SSE,164,1.0,7.0,88,0.07,,,0.10,VWS V14.00,2013-02-22 09:01:00,
2013-02-22 04:16:00,33.2,30.0,30.18,NNW,342,4.0,8.0,88,0.08,,,0.11,VWS V14.00,2013-02-22 09:16:00,
2013-02-22 04:31:00,32.9,29.7,30.19,NW,311,1.0,10.0,88,0.07,,,0.12,VWS V14.00,2013-02-22 09:31:00,
2013-02-22 04:46:00,32.9,29.7,30.21,SSE,150,0.0,5.0,88,0.06,,,0.12,VWS V14.00,2013-02-22 09:46:00,
2013-02-22 05:01:00,32.8,29.6,30.18,South,185,2.0,6.0,88,0.04,,-RA,0.12,VWS V14.00,2013-02-22 10:01:00,
2013-02-22 05:16:00,32.7,29.5,30.18,South,178,0.0,5.0,88,0.02,,-RA,0.12,VWS V14.00,2013-02-22 10:16:00,
2013-02-22 05:31:00,32.7,29.8,30.17,North,359,3.0,6.0,89,0.01,,-RA,0.12,VWS V14.00,2013-02-22 10:31:00,
2013-02-22 05:46:00,32.8,29.9,30.23,North,0,2.0,5.0,89,0.00,,-RA,0.12,VWS V14.00,2013-02-22 10:46:00,
2013-02-22 06:01:00,32.5,29.6,30.20,SSW,202,3.0,4.0,89,0.00,,-RA,0.12,VWS V14.00,2013-02-22 11:01:00,
2013-02-22 06:16:00,32.4,29.2,30.20,South,176,3.0,5.0,88,0.00,,-RA,0.12,VWS V14.00,2013-02-22 11:16:00,
2013-02-22 06:31:00,32.5,29.4,30.21,SSW,192,1.0,3.0,88,0.00,,-RA,0.12,VWS V14.00,2013-02-22 11:31:00,
2013-02-22 06:46:00,32.5,29.1,30.22,SW,215,0.0,3.0,87,0.00,,-RA,0.12,VWS V14.00,2013-02-22 11:46:00,
2013-02-22 07:01:00,32.5,29.1,30.23,SE,133,0.0,3.0,87,0.00,,OVC060,0.12,VWS V14.00,2013-02-22 12:01:00,
2013-02-22 07:16:00,32.4,29.0,30.25,South,169,0.0,2.0,87,0.00,,OVC060,0.12,VWS V14.00,2013-02-22 12:16:00,
2013-02-22 07:31:00,32.4,29.0,30.27,SE,130,0.0,2.0,87,0.00,,OVC060,0.12,VWS V14.00,2013-02-22 12:31:00,
2013-02-22 07:46:00,32.5,29.1,30.25,East,82,0.0,2.0,87,0.00,,OVC060,0.12,VWS V14.00,2013-02-22 12:46:00,
2013-02-22 08:01:00,32.5,29.1,30.26,East,80,0.0,3.0,87,0.00,,OVC060,0.12,VWS V14.00,2013-02-22 13:01:00,
2013-02-22 08:16:00,32.7,29.3,30.25,East,83,0.0,5.0,87,0.01,,OVC046,0.13,VWS V14.00,2013-02-22 13:16:00,
2013-02-22 08:31:00,32.7,29.3,30.26,ENE,78,1.0,3.0,87,0.02,,OVC046,0.14,VWS V14.00,2013-02-22 13:31:00,
2013-02-22 08:46:00,32.7,29.3,30.26,ENE,78,0.0,2.0,87,0.02,,OVC046,0.14,VWS V14.00,2013-02-22 13:46:00,
2013-02-22 09:01:00,32.8,29.4,30.26,East,79,0.0,2.0,87,0.02,,-RA,0.14,VWS V14.00,2013-02-22 14:01:00,
2013-02-22 09:16:00,32.9,29.5,30.24,East,79,0.0,4.0,87,0.03,,-RA,0.15,VWS V14.00,2013-02-22 14:16:00,
2013-02-22 09:31:00,33.2,30.0,30.25,ENE,78,0.0,2.0,88,0.02,,-RA,0.15,VWS V14.00,2013-02-22 14:31:00,
2013-02-22 09:46:00,33.2,29.8,30.23,ENE,78,0.0,3.0,87,0.02,,-RA,0.16,VWS V14.00,2013-02-22 14:46:00,
2013-02-22 10:01:00,33.2,29.8,30.23,ENE,69,2.0,6.0,87,0.02,,,0.16,VWS V14.00,2013-02-22 15:01:00,
2013-02-22 10:16:00,33.8,30.1,30.23,ENE,69,1.0,5.0,86,0.03,,,0.17,VWS V14.00,2013-02-22 15:16:00,
2013-02-22 10:31:00,34.3,30.3,30.24,ENE,58,0.0,5.0,85,0.02,,,0.17,VWS V14.00,2013-02-22 15:31:00,
2013-02-22 10:46:00,34.3,30.0,30.24,ENE,76,0.0,5.0,84,0.03,,,0.18,VWS V14.00,2013-02-22 15:46:00,
2013-02-22 11:01:00,34.3,30.0,30.23,East,82,0.0,5.0,84,0.02,,OVC010,0.18,VWS V14.00,2013-02-22 16:01:00,
2013-02-22 11:16:00,34.7,30.4,30.24,East,82,0.0,3.0,84,0.03,,OVC010,0.19,VWS V14.00,2013-02-22 16:16:00,
2013-02-22 11:31:00,34.6,30.3,30.24,East,82,0.0,3.0,84,0.02,,OVC010,0.19,VWS V14.00,2013-02-22 16:31:00,
2013-02-22 11:46:00,34.7,30.4,30.24,East,82,0.0,2.0,84,0.03,,OVC010,0.20,VWS V14.00,2013-02-22 16:46:00,
2013-02-22 12:01:00,35.0,30.4,30.23,East,83,0.0,2.0,83,0.02,,OVC010,0.20,VWS V14.00,2013-02-22 17:01:00,
2013-02-22 12:16:00,35.2,30.9,30.22,East,82,2.0,4.0,84,0.02,,OVC010,0.20,VWS V14.00,2013-02-22 17:16:00,
2013-02-22 12:31:00,35.5,30.9,30.22,East,82,1.0,3.0,83,0.02,,OVC010,0.21,VWS V14.00,2013-02-22 17:31:00,
2013-02-22 12:46:00,35.9,31.5,30.20,East,82,1.0,6.0,84,0.02,,OVC010,0.21,VWS V14.00,2013-02-22 17:46:00,
2013-02-22 13:01:00,36.5,31.5,30.18,East,83,1.0,5.0,82,0.02,,OVC010,0.22,VWS V14.00,2013-02-22 18:01:00,
2013-02-22 13:16:00,36.6,31.6,30.18,East,85,0.0,4.0,82,0.02,,OVC010,0.22,VWS V14.00,2013-02-22 18:16:00,
2013-02-22 13:31:00,36.5,31.5,30.16,East,86,0.0,3.0,82,0.02,,OVC010,0.22,VWS V14.00,2013-02-22 18:31:00,
2013-02-22 13:46:00,36.5,31.5,30.16,East,83,0.0,3.0,82,0.01,,OVC010,0.22,VWS V14.00,2013-02-22 18:46:00,
2013-02-22 14:01:00,36.5,31.5,30.16,ENE,68,1.0,1.0,82,0.01,,OVC010,0.22,VWS V14.00,2013-02-22 19:01:00,
2013-02-22 14:16:00,36.5,31.5,30.17,ENE,66,0.0,3.0,82,0.00,,OVC008,0.22,VWS V14.00,2013-02-22 19:16:00,
2013-02-22 14:31:00,36.5,31.5,30.16,NE,44,0.0,5.0,82,0.00,,OVC008,0.22,VWS V14.00,2013-02-22 19:31:00,
2013-02-22 14:46:00,36.5,32.1,30.16,NE,44,2.0,3.0,84,0.00,,OVC008,0.22,VWS V14.00,2013-02-22 19:46:00,
2013-02-22 15:01:00,36.2,32.4,30.16,NE,55,0.0,3.0,86,0.01,,OVC008,0.23,VWS V14.00,2013-02-22 20:01:00,
2013-02-22 15:16:00,35.9,32.4,30.16,North,10,2.0,2.0,87,0.01,,OVC008,0.23,VWS V14.00,2013-02-22 20:16:00,
2013-02-22 15:31:00,35.5,32.0,30.17,ENE,64,1.0,4.0,87,0.01,,OVC008,0.23,VWS V14.00,2013-02-22 20:31:00,
2013-02-22 15:46:00,35.3,32.1,30.16,ENE,65,0.0,3.0,88,0.02,,OVC008,0.24,VWS V14.00,2013-02-22 20:46:00,
2013-02-22 16:01:00,35.2,32.0,30.17,ENE,65,1.0,2.0,88,0.02,,OVC008,0.24,VWS V14.00,2013-02-22 21:01:00,
2013-02-22 16:16:00,35.0,31.8,30.15,North,0,1.0,5.0,88,0.01,,-RA,0.24,VWS V14.00,2013-02-22 21:16:00,
2013-02-22 16:31:00,35.0,32.1,30.15,ENE,71,0.0,3.0,89,0.02,,-RA,0.25,VWS V14.00,2013-02-22 21:31:00,
2013-02-22 16:46:00,35.3,32.7,30.17,ENE,71,0.0,2.0,90,0.02,,-RA,0.25,VWS V14.00,2013-02-22 21:46:00,
2013-02-22 17:01:00,35.0,32.4,30.16,ENE,71,0.0,2.0,90,0.01,,-RA,0.25,VWS V14.00,2013-02-22 22:01:00,
2013-02-22 17:16:00,35.0,32.4,30.16,ENE,71,0.0,2.0,90,0.01,,-RA,0.25,VWS V14.00,2013-02-22 22:16:00,
2013-02-22 17:31:00,34.9,32.3,30.15,ENE,68,0.0,3.0,90,0.01,,-RA,0.25,VWS V14.00,2013-02-22 22:31:00,
2013-02-22 17:46:00,34.7,32.1,30.15,ENE,75,0.0,6.0,90,0.00,,-RA,0.25,VWS V14.00,2013-02-22 22:46:00,
2013-02-22 18:01:00,34.6,32.0,30.15,ENE,71,0.0,6.0,90,0.01,,,0.26,VWS V14.00,2013-02-22 23:01:00,
2013-02-22 18:16:00,34.6,32.2,30.14,East,79,0.0,5.0,91,0.01,,,0.26,VWS V14.00,2013-02-22 23:16:00,
2013-02-22 18:31:00,34.6,32.2,30.15,ENE,73,1.0,5.0,91,0.01,,,0.26,VWS V14.00,2013-02-22 23:31:00,
2013-02-22 18:46:00,34.6,32.2,30.15,ENE,73,0.0,2.0,91,0.01,,,0.26,VWS V14.00,2013-02-22 23:46:00,
2013-02-22 19:01:00,34.6,32.2,30.15,ENE,73,0.0,2.0,91,0.01,,,0.26,VWS V14.00,2013-02-23 00:01:00,
2013-02-22 19:16:00,34.6,32.2,30.16,ENE,71,0.0,2.0,91,0.00,,,0.26,VWS V14.00,2013-02-23 00:16:00,
2013-02-22 19:31:00,34.4,32.0,30.15,ENE,68,0.0,2.0,91,0.00,,,0.26,VWS V14.00,2013-02-23 00:31:00,
2013-02-22 19:46:00,34.4,32.0,30.14,ENE,66,0.0,2.0,91,0.00,,,0.26,VWS V14.00,2013-02-23 00:46:00,
2013-02-22 20:01:00,34.3,32.0,30.14,ENE,68,0.0,2.0,91,0.01,,,0.27,VWS V14.00,2013-02-23 01:01:00,
2013-02-22 20:16:00,34.4,32.0,30.14,ENE,68,2.0,3.0,91,0.01,,,0.27,VWS V14.00,2013-02-23 01:16:00,
2013-02-22 20:31:00,34.4,32.0,30.14,ENE,75,0.0,2.0,91,0.01,,,0.27,VWS V14.00,2013-02-23 01:31:00,
2013-02-22 20:46:00,34.4,32.3,30.12,ENE,72,0.0,4.0,92,0.01,,,0.27,VWS V14.00,2013-02-23 01:46:00,
2013-02-22 21:01:00,34.6,32.5,30.13,ENE,72,0.0,3.0,92,0.01,,,0.27,VWS V14.00,2013-02-23 02:01:00,
2013-02-22 21:16:00,34.6,32.5,30.15,ENE,78,0.0,3.0,92,0.00,,,0.27,VWS V14.00,2013-02-23 02:16:00,
2013-02-22 21:31:00,34.6,32.5,30.16,ENE,78,0.0,1.0,92,0.00,,,0.27,VWS V14.00,2013-02-23 02:31:00,
2013-02-22 21:46:00,34.7,32.6,30.14,ENE,69,1.0,2.0,92,0.01,,,0.28,VWS V14.00,2013-02-23 02:46:00,
2013-02-22 22:01:00,34.6,32.5,30.13,ENE,71,0.0,3.0,92,0.01,,,0.28,VWS V14.00,2013-02-23 03:01:00,
2013-02-22 22:16:00,34.6,32.5,30.13,ENE,69,0.0,2.0,92,0.02,,,0.29,VWS V14.00,2013-02-23 03:16:00,
2013-02-22 22:31:00,34.6,32.5,30.13,ENE,72,0.0,5.0,92,0.02,,,0.29,VWS V14.00,2013-02-23 03:31:00,
2013-02-22 22:46:00,34.6,32.5,30.12,ENE,72,0.0,2.0,92,0.02,,,0.29,VWS V14.00,2013-02-23 03:46:00,
2013-02-22 23:01:00,34.6,32.5,30.12,ENE,72,1.0,2.0,92,0.01,,,0.29,VWS V14.00,2013-02-23 04:01:00,
2013-02-22 23:16:00,34.7,32.6,30.10,ENE,72,1.0,2.0,92,0.01,,,0.29,VWS V14.00,2013-02-23 04:16:00,
2013-02-22 23:31:00,34.7,32.6,30.08,ENE,66,0.0,5.0,92,0.00,,,0.29,VWS V14.00,2013-02-23 04:31:00,
2013-02-22 23:46:00,34.7,32.9,30.07,ENE,66,0.0,2.0,93,0.00,,,0.29,VWS V14.00,2013-02-23 04:46:00,